Air Resources Laboratory banner image
Air Resources Laboratory web site National Oceanic and Atmospheric Administration (NOAA)

mi metar


KACB 222255Z AUTO 30003KT 10SM CLR 19/07 A3002 RMK AO2 T01870065=
KADG 222253Z AUTO 36012G20KT 10SM FEW020 BKN028 OVC036 19/15 A2999 RMK AO2
 SLP158 T01890150 TSNO=
KAMN 222255Z AUTO 26004KT 10SM SCT022 18/14 A3001 RMK AO2 T01810137=
KANJ 222255Z AUTO 31009G18KT 10SM CLR 19/05 A2998 RMK AO2 SLP151 T01940050=
KAPN 222254Z AUTO 03005KT 10SM CLR 22/08 A2998 RMK AO2 SLP152 T02170083=
KARB 222253Z 30013KT 10SM OVC023 18/14 A2999 RMK AO2 SLP154 T01780139=
KAZO 222253Z 31009KT 10SM OVC015 17/13 A3004 RMK AO2 SLP171 T01670128=
KBAX 222255Z AUTO 34008KT 10SM CLR 15/10 A3000 RMK AO2 T01460103=
KBEH 222253Z AUTO 01006KT 10SM OVC011 12/09 A3006 RMK AO2 CIG 006V011 SLP178
 T01220094 $=
KBIV 222253Z AUTO 26006KT 10SM OVC005 11/09 A3006 RMK AO2 SLPNO T01060089=
KBTL 222253Z 33008KT 10SM OVC020 18/13 A3003 RMK AO2 SLP169 T01780133=
KCAD 222255Z AUTO 35007KT 310V010 10SM CLR 21/10 A3000 RMK AO2 T02090098=
KCIU 222256Z AUTO 33008KT 10SM CLR 19/07 A2999 RMK AO2 SLP183 T01890072 PNO $=
KCMX 222253Z AUTO 30010KT 10SM CLR 23/03 A3000 RMK AO2 SLP157 T02280033=
KDET 222253Z 35009KT 10SM OVC026 19/14 A2997 RMK AO2 SLP148 T01940139=
KDTW 222253Z 31013KT 10SM BKN025 BKN060 19/13 A2998 RMK AO2 SLP150 T01940133=
KERY 222255Z AUTO 35007KT 7SM CLR 21/04 A2999 RMK AO2 T02050044=
KESC 222256Z AUTO 19007KT 10SM CLR 18/10 A3000 RMK AO2 SLP181 T01780100=
KFNT 222253Z 35005KT 10SM OVC018 16/12 A3001 RMK AO2 SLP162 T01560122=
KGLR 222253Z AUTO VRB05KT 10SM CLR 21/08 A3000 RMK AO2 SLP160 T02060083=
KGRR 222253Z 25007KT 10SM BKN018 18/14 A3002 RMK AO2 SLP168 T01780139=
KHTL 222253Z AUTO 15003KT 10SM CLR 21/11 A2998 RMK AO2 SLP154 T02060111=
KIMT 222254Z AUTO 30009KT 10SM CLR 27/02 A2997 RMK AO2 SLP146 T02670022=
KIRS 222255Z AUTO 35009KT 10SM OVC017 17/14 A3002 RMK AO2 T01730140=
KISQ 222255Z AUTO 21007KT 10SM CLR 13/10 A3000 RMK AO2 T01310101=
KIWD 222256Z AUTO 33007KT 10SM CLR 24/09 A3002 RMK AO2 SLP164 T02390094=
KJXN 222256Z 29006KT 10SM BKN016 OVC024 17/14 A3001 RMK AO2 SLP163 T01720144=
KJYM 222255Z AUTO 32009KT 10SM OVC023 17/13 A3001 RMK AO2=
KLAN 222253Z 34008KT 10SM OVC015 16/14 A3002 RMK AO2 CIG 012V021 SLP168
 T01610139=
KLDM 222255Z AUTO 25005KT 10SM CLR 16/11 A3004 RMK AO2 T01580109=
KMBL 222256Z AUTO 33004KT 10SM CLR 16/10 A3003 RMK AO2 SLP189 T01560100=
KMBS 222253Z 00000KT 10SM BKN023 18/13 A3000 RMK AO2 SLP161 T01780128=
KMCD 222255Z AUTO 27010G14KT 10SM CLR 18/07 A3000 RMK AO2 T01760073=
KMKG 222255Z 25005KT 10SM FEW020 14/09 A3004 RMK AO2 SLP175 T01390094=
KMNM 222256Z AUTO 19007KT 10SM CLR 23/08 A3000 RMK AO2 SLP177 T02280078 $=
KMOP 222255Z AUTO 25005KT 10SM CLR 20/14 A2998 RMK AO2 T01960138=
KMTC 222256Z 33009KT 10SM BKN020 OVC028 18/17 A2996 RMK AO2A SLP150 ALSTG/SLP
 ESTMD T01770165 $=
KOEB 222255Z AUTO 31008KT 10SM OVC022 19/14 A3002 RMK AO2 T01880135=
KONZ 222255Z AUTO 33012KT 10SM SCT024 BKN033 21/15 A2996 RMK AO2 T02050154=
KOSC 222255Z AUTO 11005KT 10SM CLR 16/05 A2998 RMK AO2 T01590053=
KOZW 222255Z AUTO 31007KT 10SM OVC012 16/14 A3001 RMK AO2 T01570135=
KP58 222251Z AUTO 32004KT 11/09 A2998 RMK AO1 SLP156 T01110094=
KP59 222251Z AUTO 34008KT 12/05 A2998 RMK AO1 SLP153 T01170050=
KPHN 222255Z AUTO 02003KT 10SM OVC016 14/11 A2998 RMK AO2=
KPLN 222254Z AUTO 23007KT 10SM CLR 22/07 A2999 RMK AO2 SLP156 T02170072=
KPTK 222253Z 34009KT 8SM OVC012 16/13 A2999 RMK AO2 SLP154 T01560133=
KRMY 222255Z AUTO 31005KT 10SM OVC021 18/13 A3002 RMK AO2 T01750129=
KRQB 222255Z AUTO 28004KT 10SM CLR 19/13 A3000 RMK AO2 T01910126=
KSAW 222248Z 02014KT 10SM SKC 22/00 A3001=
KTEW 222255Z AUTO 31008KT 10SM OVC015 17/14 A3002 RMK AO2 T01660136=
KTTF 222258Z AUTO 33014G20KT 10SM SCT025 SCT032 21/15 A2996 RMK AO2 T02060154=
KTVC 222253Z 02007KT 10SM FEW040 14/08 A3001 RMK AO2 SLP163 T01440078=
KYIP 222253Z 32015KT 10SM OVC026 19/14 A2999 RMK AO2 SLP151 T01940139=